Time;durP1;ratioP1;P1;durP2;ratioP2;P2;SDS_P1;SDS_P2;PMS_P1;PMS_P2;Temp;Humidity;BMP_temperature;BMP_pressure;BME280_temperature;BME280_humidity;BME280_pressure;Samples;Min_cycle;Max_cycle;Signal;HPM_P1;HPM_P2
2021/08/15 00:02:04;;;;;;;14.98;7.10;;;15.60;99.90;;;;;;5066140;28;20053;-65
2021/08/15 00:04:30;;;;;;;15.73;7.90;;;15.70;99.90;;;;;;5066007;28;20051;-65
2021/08/15 00:06:56;;;;;;;14.60;7.90;;;15.80;99.90;;;;;;5073386;28;20079;-65
2021/08/15 00:09:21;;;;;;;16.15;8.23;;;15.90;99.90;;;;;;5071089;28;20078;-64
2021/08/15 00:11:48;;;;;;;13.93;7.75;;;15.90;99.90;;;;;;5073826;28;20044;-65
2021/08/15 00:14:14;;;;;;;11.43;7.28;;;15.90;99.90;;;;;;5077607;28;20041;-65
2021/08/15 00:16:40;;;;;;;13.75;8.15;;;15.90;99.90;;;;;;5064749;28;20484;-65
2021/08/15 00:19:06;;;;;;;15.90;8.82;;;15.90;99.90;;;;;;5065491;28;20044;-65
2021/08/15 00:21:33;;;;;;;14.55;8.93;;;15.90;99.90;;;;;;5065281;28;20037;-65
2021/08/15 00:24:00;;;;;;;15.57;8.52;;;15.90;99.90;;;;;;5064458;28;20518;-65
2021/08/15 00:26:25;;;;;;;14.00;8.52;;;16.00;99.90;;;;;;5066808;28;20515;-65
2021/08/15 00:28:51;;;;;;;12.65;7.22;;;16.00;99.90;;;;;;5066430;28;20045;-65
2021/08/15 00:31:17;;;;;;;15.05;8.15;;;16.10;99.90;;;;;;5066735;28;20083;-65
2021/08/15 00:33:43;;;;;;;16.50;8.35;;;16.10;99.90;;;;;;5065756;28;20053;-64
2021/08/15 00:36:09;;;;;;;13.60;8.40;;;16.10;99.90;;;;;;5065263;28;20053;-65
2021/08/15 00:38:34;;;;;;;12.57;7.30;;;16.10;99.90;;;;;;5076694;28;20056;-64
2021/08/15 00:41:02;;;;;;;15.90;8.25;;;16.10;99.90;;;;;;5067581;28;20060;-65
2021/08/15 00:43:31;;;;;;;13.68;8.05;;;16.10;99.90;;;;;;5066065;28;20048;-65
2021/08/15 00:46:06;;;;;;;13.75;7.60;;;16.10;99.90;;;;;;5075191;28;20049;-65
2021/08/15 00:48:32;;;;;;;20.55;9.02;;;16.10;99.90;;;;;;5065169;28;20226;-65
2021/08/15 00:50:58;;;;;;;13.40;8.18;;;16.30;99.90;;;;;;5078013;28;20052;-65
2021/08/15 00:53:24;;;;;;;12.93;8.02;;;16.30;99.90;;;;;;5071519;28;20048;-65
2021/08/15 00:55:49;;;;;;;15.00;8.00;;;16.20;99.90;;;;;;5064020;28;20040;-65
2021/08/15 00:58:15;;;;;;;12.60;7.88;;;16.20;99.90;;;;;;5065680;28;20041;-65
2021/08/15 01:00:41;;;;;;;16.27;8.52;;;16.10;99.90;;;;;;5080700;28;20389;-65
2021/08/15 01:03:07;;;;;;;14.23;7.65;;;16.10;99.90;;;;;;5064741;28;20041;-65
2021/08/15 01:05:33;;;;;;;10.98;7.15;;;16.10;99.90;;;;;;5065548;28;20120;-65
2021/08/15 01:08:00;;;;;;;12.10;7.50;;;16.30;99.90;;;;;;5082242;28;20051;-65
2021/08/15 01:10:27;;;;;;;13.10;8.18;;;16.20;99.90;;;;;;5069899;28;20032;-65
2021/08/15 01:12:52;;;;;;;11.38;8.30;;;16.00;99.90;;;;;;5083204;28;20044;-65
2021/08/15 01:15:19;;;;;;;13.32;7.90;;;16.00;99.90;;;;;;5069566;28;20553;-65
2021/08/15 01:17:45;;;;;;;13.55;8.35;;;16.00;99.90;;;;;;5073694;28;20049;-65
2021/08/15 01:20:11;;;;;;;15.75;8.13;;;15.90;99.90;;;;;;5070442;28;20048;-65
2021/08/15 01:22:38;;;;;;;13.07;8.60;;;15.80;99.90;;;;;;5065594;28;20051;-65
2021/08/15 01:25:06;;;;;;;10.02;7.72;;;15.90;99.90;;;;;;5064921;28;20041;-65
2021/08/15 01:27:37;;;;;;;12.80;8.82;;;15.80;99.90;;;;;;5072197;28;20067;-65
2021/08/15 01:30:05;;;;;;;11.88;7.28;;;15.90;99.90;;;;;;5069760;28;20488;-65
2021/08/15 01:32:31;;;;;;;11.98;8.40;;;15.80;99.90;;;;;;5065437;28;20045;-65
2021/08/15 01:35:00;;;;;;;14.20;8.55;;;15.80;99.90;;;;;;5065321;28;20052;-65
2021/08/15 01:37:25;;;;;;;16.60;9.38;;;15.90;99.90;;;;;;5070316;28;20044;-65
2021/08/15 01:39:52;;;;;;;17.05;7.95;;;16.10;99.90;;;;;;5070230;28;20067;-65
2021/08/15 01:42:18;;;;;;;13.10;8.70;;;16.10;99.90;;;;;;5065525;28;20059;-65
2021/08/15 01:44:44;;;;;;;14.93;8.13;;;16.10;99.90;;;;;;5070084;28;20119;-65
2021/08/15 01:47:10;;;;;;;17.40;8.68;;;16.00;99.90;;;;;;5063890;28;20468;-65
2021/08/15 01:49:36;;;;;;;14.52;8.57;;;15.90;99.90;;;;;;5064157;28;20055;-64
2021/08/15 01:52:03;;;;;;;12.60;7.63;;;15.90;99.90;;;;;;5063927;28;20101;-65
2021/08/15 01:54:28;;;;;;;13.15;8.32;;;15.90;99.90;;;;;;5065968;28;20492;-64
2021/08/15 01:56:54;;;;;;;11.00;7.70;;;15.90;99.90;;;;;;5063839;28;20052;-64
2021/08/15 01:59:20;;;;;;;11.65;7.70;;;15.90;99.90;;;;;;5064876;28;20049;-64
2021/08/15 02:01:46;;;;;;;13.23;8.52;;;15.90;99.90;;;;;;5063833;28;20090;-64
2021/08/15 02:04:13;;;;;;;14.82;8.13;;;15.80;99.90;;;;;;5063694;28;20497;-64
2021/08/15 02:06:39;;;;;;;10.45;7.53;;;15.80;99.90;;;;;;5066588;28;20451;-64
2021/08/15 02:09:05;;;;;;;12.95;8.02;;;15.80;99.90;;;;;;5072692;28;20048;-64
2021/08/15 02:11:30;;;;;;;12.88;8.23;;;15.80;99.90;;;;;;5067801;28;20503;-64
2021/08/15 02:13:56;;;;;;;15.70;7.35;;;15.80;99.90;;;;;;5054969;28;20045;-65
2021/08/15 02:16:22;;;;;;;12.18;7.78;;;15.70;99.90;;;;;;5063666;28;20033;-65
2021/08/15 02:18:48;;;;;;;13.77;7.53;;;15.80;99.90;;;;;;5074100;28;20040;-64
2021/08/15 02:21:13;;;;;;;11.88;7.18;;;15.70;99.90;;;;;;5067485;28;20041;-64
2021/08/15 02:23:39;;;;;;;10.95;7.50;;;15.70;99.90;;;;;;5063571;28;20052;-64
2021/08/15 02:26:05;;;;;;;17.02;7.57;;;15.70;99.90;;;;;;5067653;28;20090;-65
2021/08/15 02:28:31;;;;;;;15.93;8.15;;;15.70;99.90;;;;;;5074854;28;20049;-65
2021/08/15 02:30:57;;;;;;;10.95;7.30;;;15.80;99.90;;;;;;5065318;28;20388;-64
2021/08/15 02:33:22;;;;;;;14.63;8.35;;;15.80;99.90;;;;;;5063491;28;20052;-64
2021/08/15 02:35:48;;;;;;;11.50;7.22;;;15.80;99.90;;;;;;5063784;28;20049;-64
2021/08/15 02:38:14;;;;;;;10.82;7.22;;;15.90;99.90;;;;;;5082411;28;20396;-64
2021/08/15 02:40:41;;;;;;;10.95;6.35;;;16.10;99.90;;;;;;5081475;28;20041;-65
2021/08/15 02:43:07;;;;;;;10.57;6.85;;;16.00;99.90;;;;;;5063535;28;20463;-64
2021/08/15 02:45:33;;;;;;;9.98;6.72;;;16.00;99.90;;;;;;5075870;28;20048;-64
2021/08/15 02:47:59;;;;;;;11.77;7.78;;;16.10;99.90;;;;;;5062978;28;20049;-64
2021/08/15 02:50:25;;;;;;;10.32;7.05;;;16.00;99.90;;;;;;5092574;28;20048;-64
2021/08/15 02:52:52;;;;;;;10.60;6.93;;;16.20;99.90;;;;;;5065171;28;20128;-65
2021/08/15 02:55:18;;;;;;;10.85;7.15;;;16.20;99.90;;;;;;5070421;28;20223;-64
2021/08/15 02:57:44;;;;;;;10.98;7.10;;;16.10;99.90;;;;;;5063260;28;20045;-64
2021/08/15 03:00:11;;;;;;;10.93;7.57;;;16.00;99.90;;;;;;5063148;28;20056;-65
2021/08/15 03:02:39;;;;;;;13.48;7.85;;;16.00;99.90;;;;;;5063578;28;20327;-64
2021/08/15 03:05:06;;;;;;;13.00;8.00;;;15.80;99.90;;;;;;5063886;28;20045;-65
2021/08/15 03:07:33;;;;;;;14.05;7.60;;;15.70;99.90;;;;;;5072098;28;20045;-65
2021/08/15 03:09:59;;;;;;;13.05;7.72;;;15.60;99.90;;;;;;5063417;28;20041;-65
2021/08/15 03:12:25;;;;;;;13.13;7.68;;;15.60;99.90;;;;;;5069617;28;20044;-64
2021/08/15 03:14:51;;;;;;;12.45;6.88;;;15.60;99.90;;;;;;5064626;28;20052;-65
2021/08/15 03:17:17;;;;;;;14.35;8.18;;;15.60;99.90;;;;;;5098816;28;20098;-64
2021/08/15 03:19:43;;;;;;;10.18;7.20;;;15.60;99.90;;;;;;5074401;28;20045;-66
2021/08/15 03:22:09;;;;;;;13.80;7.75;;;15.60;99.90;;;;;;5066571;28;20055;-65
2021/08/15 03:24:35;;;;;;;14.02;7.72;;;15.60;99.90;;;;;;5067530;28;20528;-65
2021/08/15 03:27:02;;;;;;;12.20;7.63;;;15.60;99.90;;;;;;5066917;28;20070;-64
2021/08/15 03:29:28;;;;;;;13.68;7.43;;;15.60;99.90;;;;;;5066511;28;20048;-65
2021/08/15 03:31:54;;;;;;;12.48;7.65;;;15.60;99.90;;;;;;5066575;28;20049;-65
2021/08/15 03:34:20;;;;;;;11.10;7.97;;;15.50;99.90;;;;;;5067939;28;20049;-65
2021/08/15 03:36:47;;;;;;;10.00;7.90;;;15.50;99.90;;;;;;5067157;28;20071;-65
2021/08/15 03:39:13;;;;;;;12.45;7.65;;;15.40;99.90;;;;;;5070479;28;20037;-65
2021/08/15 03:41:40;;;;;;;11.15;7.50;;;15.40;99.90;;;;;;5066923;28;20085;-65
2021/08/15 03:44:06;;;;;;;11.05;7.30;;;15.40;99.90;;;;;;5067755;28;20103;-65
2021/08/15 03:50:13;;;;;;;13.20;7.13;;;15.50;99.90;;;;;;5071917;28;20329;-65
2021/08/15 03:52:41;;;;;;;10.90;7.38;;;15.40;99.90;;;;;;5080956;28;20135;-65
2021/08/15 03:55:11;;;;;;;10.73;7.40;;;15.40;99.90;;;;;;5078377;28;20083;-65
2021/08/15 03:57:38;;;;;;;9.45;7.47;;;15.30;99.90;;;;;;5066880;28;20115;-65
2021/08/15 04:00:04;;;;;;;10.15;6.93;;;15.30;99.90;;;;;;5072455;28;20052;-65
2021/08/15 04:02:30;;;;;;;10.63;7.22;;;15.30;99.90;;;;;;5080302;28;20178;-65
2021/08/15 04:04:56;;;;;;;12.40;7.32;;;15.30;99.90;;;;;;5067115;28;20211;-66
2021/08/15 04:07:22;;;;;;;13.77;7.55;;;15.40;99.90;;;;;;5069235;28;20037;-66
2021/08/15 04:09:48;;;;;;;12.25;6.82;;;15.30;99.90;;;;;;5066372;28;20037;-65
2021/08/15 04:12:14;;;;;;;9.98;6.45;;;15.30;99.90;;;;;;5067121;28;20049;-66
2021/08/15 04:14:40;;;;;;;9.63;6.90;;;15.30;99.90;;;;;;5066289;28;20040;-65
2021/08/15 04:17:06;;;;;;;12.45;7.10;;;15.30;99.90;;;;;;5065862;28;20041;-65
2021/08/15 04:19:32;;;;;;;10.25;7.07;;;15.30;99.90;;;;;;5066459;28;20049;-66
2021/08/15 04:21:58;;;;;;;12.20;6.28;;;15.40;99.90;;;;;;5065645;28;20045;-65
2021/08/15 04:24:24;;;;;;;11.05;6.82;;;15.50;99.90;;;;;;5082155;28;20036;-65
2021/08/15 04:26:50;;;;;;;9.18;6.65;;;15.50;99.90;;;;;;5073436;28;20052;-65
2021/08/15 04:29:17;;;;;;;10.27;6.93;;;15.40;99.90;;;;;;5065096;28;20044;-65
2021/08/15 04:31:43;;;;;;;10.15;6.90;;;15.40;99.90;;;;;;5077361;28;20052;-65
2021/08/15 04:34:09;;;;;;;11.02;6.82;;;15.40;99.90;;;;;;5084160;28;20041;-65
2021/08/15 04:36:36;;;;;;;11.43;7.32;;;15.40;99.90;;;;;;5073712;28;20455;-65
2021/08/15 04:39:02;;;;;;;11.07;7.35;;;15.30;99.90;;;;;;5065615;28;20037;-65
2021/08/15 04:41:28;;;;;;;11.30;6.85;;;15.30;99.90;;;;;;5065817;28;20057;-65
2021/08/15 04:43:54;;;;;;;12.52;7.22;;;15.30;99.90;;;;;;5066430;28;20076;-66
2021/08/15 04:46:21;;;;;;;10.23;6.95;;;15.30;99.90;;;;;;5066687;28;20048;-65
2021/08/15 04:48:47;;;;;;;10.60;6.93;;;15.30;99.90;;;;;;5065254;28;20056;-63
2021/08/15 04:51:12;;;;;;;10.98;7.57;;;15.30;99.90;;;;;;5073390;28;20141;-63
2021/08/15 04:53:41;;;;;;;14.02;7.40;;;15.40;99.90;;;;;;5067186;28;20037;-64
2021/08/15 04:56:07;;;;;;;11.35;6.70;;;15.40;99.90;;;;;;5091065;28;20101;-64
2021/08/15 04:58:35;;;;;;;12.55;6.88;;;15.40;99.90;;;;;;5071132;28;20052;-64
2021/08/15 05:01:04;;;;;;;11.52;7.35;;;15.30;99.90;;;;;;5074299;28;20049;-64
2021/08/15 05:03:30;;;;;;;11.95;7.13;;;15.30;99.90;;;;;;5064765;28;20041;-63
2021/08/15 05:05:58;;;;;;;10.95;7.32;;;15.30;99.90;;;;;;5073897;28;20041;-64
2021/08/15 05:08:24;;;;;;;10.38;6.63;;;15.30;99.90;;;;;;5083611;28;20056;-67
2021/08/15 05:10:51;;;;;;;11.50;7.30;;;15.30;99.90;;;;;;5085291;28;20094;-66
2021/08/15 05:13:17;;;;;;;9.32;6.70;;;15.40;99.90;;;;;;5084862;28;20457;-65
2021/08/15 05:15:43;;;;;;;11.80;7.13;;;15.40;99.90;;;;;;5083999;28;20051;-69
2021/08/15 05:18:10;;;;;;;12.90;6.93;;;15.40;99.90;;;;;;5083661;28;20036;-68
2021/08/15 05:20:36;;;;;;;12.05;7.65;;;15.40;99.90;;;;;;5083532;28;20539;-67
2021/08/15 05:23:02;;;;;;;10.95;6.65;;;15.40;99.90;;;;;;5083987;28;20094;-67
2021/08/15 05:25:31;;;;;;;10.75;7.72;;;15.40;99.90;;;;;;5081489;28;20037;-67
2021/08/15 05:27:57;;;;;;;11.93;7.70;;;15.40;99.90;;;;;;5083076;28;20097;-66
2021/08/15 05:30:23;;;;;;;11.43;7.20;;;15.50;99.90;;;;;;5081885;28;20040;-67
2021/08/15 05:32:49;;;;;;;12.90;7.32;;;15.60;99.90;;;;;;5084086;28;20514;-67
2021/08/15 05:35:16;;;;;;;13.52;8.15;;;15.60;99.90;;;;;;5083221;28;20108;-66
2021/08/15 05:37:42;;;;;;;12.48;7.53;;;15.60;99.90;;;;;;5083828;28;20051;-66
2021/08/15 05:40:09;;;;;;;12.85;6.80;;;15.70;99.90;;;;;;5082781;28;20041;-68
2021/08/15 05:42:35;;;;;;;12.00;7.05;;;15.70;99.90;;;;;;5084026;28;20044;-68
2021/08/15 05:45:02;;;;;;;12.48;7.47;;;15.80;99.90;;;;;;5084607;28;20435;-69
2021/08/15 05:47:27;;;;;;;11.07;7.53;;;15.70;99.90;;;;;;5083420;28;20056;-67
2021/08/15 05:49:53;;;;;;;11.15;7.00;;;15.70;99.90;;;;;;5083988;28;20049;-71
2021/08/15 05:52:19;;;;;;;12.73;7.63;;;15.70;99.90;;;;;;5078182;28;20041;-75
2021/08/15 05:54:45;;;;;;;11.93;7.18;;;15.80;99.90;;;;;;5083943;28;20095;-73
2021/08/15 05:57:11;;;;;;;10.57;7.28;;;15.70;99.90;;;;;;5083910;28;20382;-73
2021/08/15 05:59:37;;;;;;;13.30;7.78;;;15.90;99.90;;;;;;5083889;28;20041;-73
2021/08/15 06:02:03;;;;;;;12.45;7.97;;;15.90;99.90;;;;;;5084328;28;20044;-73
2021/08/15 06:04:29;;;;;;;10.68;7.13;;;16.00;99.90;;;;;;5082773;28;20044;-73
2021/08/15 06:06:55;;;;;;;12.52;7.00;;;16.10;99.90;;;;;;5084124;28;20037;-73
2021/08/15 06:09:21;;;;;;;11.30;7.38;;;16.20;99.90;;;;;;5083929;28;20037;-73
2021/08/15 06:11:47;;;;;;;14.57;7.25;;;16.20;99.90;;;;;;5084324;28;20494;-73
2021/08/15 06:14:16;;;;;;;12.18;8.20;;;16.20;99.90;;;;;;5084202;28;20040;-73
2021/08/15 06:16:42;;;;;;;11.65;7.45;;;16.30;99.90;;;;;;5082782;28;20047;-73
2021/08/15 06:19:08;;;;;;;13.77;7.35;;;16.50;99.90;;;;;;5083956;28;20052;-73
2021/08/15 06:21:34;;;;;;;10.48;7.28;;;16.60;99.90;;;;;;5083902;28;20036;-73
2021/08/15 06:24:00;;;;;;;10.80;6.88;;;16.60;99.90;;;;;;5082924;28;20040;-73
2021/08/15 06:26:26;;;;;;;10.15;6.35;;;16.70;99.90;;;;;;5085471;28;20044;-72
2021/08/15 06:28:51;;;;;;;10.30;6.80;;;16.80;99.90;;;;;;5084706;28;20089;-72
2021/08/15 06:31:18;;;;;;;9.85;6.15;;;16.90;99.90;;;;;;5066499;28;20040;-72
2021/08/15 06:33:44;;;;;;;11.52;7.53;;;16.90;99.90;;;;;;5064674;28;20063;-72
2021/08/15 06:36:10;;;;;;;9.93;6.28;;;16.90;99.90;;;;;;5063592;28;20037;-72
2021/08/15 06:38:36;;;;;;;12.43;7.35;;;17.00;99.90;;;;;;5063674;28;20051;-72
2021/08/15 06:41:02;;;;;;;12.85;7.68;;;17.00;99.90;;;;;;5092909;28;20064;-73
2021/08/15 06:43:28;;;;;;;10.30;6.65;;;17.10;99.90;;;;;;5064786;28;20045;-72
2021/08/15 06:45:54;;;;;;;12.32;6.78;;;17.10;99.90;;;;;;5079539;28;20041;-73
2021/08/15 06:48:22;;;;;;;11.45;6.10;;;17.20;99.90;;;;;;5062620;28;20045;-73
2021/08/15 06:50:53;;;;;;;11.98;6.68;;;17.30;99.90;;;;;;5066914;28;20048;-72
2021/08/15 06:53:20;;;;;;;10.32;6.47;;;17.40;99.90;;;;;;5077817;28;20044;-73
2021/08/15 06:55:47;;;;;;;9.23;6.30;;;17.50;99.90;;;;;;5068542;28;20106;-73
2021/08/15 06:58:12;;;;;;;9.77;6.57;;;17.50;99.90;;;;;;5067508;28;20057;-73
2021/08/15 07:00:38;;;;;;;10.38;6.50;;;17.60;99.90;;;;;;5070298;28;20052;-73
2021/08/15 07:03:04;;;;;;;10.57;6.32;;;17.70;99.90;;;;;;5068472;28;20037;-72
2021/08/15 07:05:30;;;;;;;12.18;6.95;;;17.80;99.90;;;;;;5070275;28;20052;-72
2021/08/15 07:07:56;;;;;;;11.50;6.50;;;17.90;99.90;;;;;;5086244;28;20070;-72
2021/08/15 07:10:21;;;;;;;9.93;6.35;;;17.90;99.90;;;;;;5071531;28;20049;-72
2021/08/15 07:12:52;;;;;;;11.10;5.90;;;17.90;99.90;;;;;;5066901;28;20060;-72
2021/08/15 07:15:19;;;;;;;10.32;6.03;;;18.00;99.90;;;;;;5095613;28;20070;-72
2021/08/15 07:17:45;;;;;;;10.48;6.57;;;18.10;99.90;;;;;;5066698;28;20044;-72
2021/08/15 07:20:11;;;;;;;10.75;5.82;;;18.20;99.90;;;;;;5067801;28;20045;-72
2021/08/15 07:22:37;;;;;;;8.82;5.97;;;18.30;99.90;;;;;;5066379;28;20049;-72
2021/08/15 07:25:04;;;;;;;9.75;6.35;;;18.40;99.90;;;;;;5066781;28;20128;-72
2021/08/15 07:27:31;;;;;;;8.38;5.50;;;18.50;99.90;;;;;;5067023;28;20041;-72
2021/08/15 07:29:57;;;;;;;8.25;5.88;;;18.60;99.90;;;;;;5066453;28;20040;-72
2021/08/15 07:32:23;;;;;;;11.57;6.25;;;18.60;99.90;;;;;;5066847;28;20051;-71
2021/08/15 07:34:49;;;;;;;9.52;5.22;;;18.70;99.90;;;;;;5067683;28;20045;-72
2021/08/15 07:37:14;;;;;;;14.18;6.13;;;18.70;99.90;;;;;;5067477;28;20083;-72
2021/08/15 07:39:40;;;;;;;10.38;5.97;;;18.80;99.90;;;;;;5067356;28;20041;-72
2021/08/15 07:42:06;;;;;;;11.13;5.78;;;18.80;99.90;;;;;;5066686;28;20167;-72
2021/08/15 07:44:33;;;;;;;10.32;5.63;;;18.90;99.90;;;;;;5066449;28;20045;-71
2021/08/15 07:46:58;;;;;;;10.43;6.68;;;19.00;99.90;;;;;;5101614;28;20048;-72
2021/08/15 07:49:24;;;;;;;8.75;5.70;;;19.00;99.90;;;;;;5085369;28;20051;-71
2021/08/15 07:51:50;;;;;;;7.75;5.40;;;19.10;99.90;;;;;;5074663;28;20516;-71
2021/08/15 07:54:16;;;;;;;8.55;4.97;;;19.10;99.90;;;;;;5074925;28;20049;-72
2021/08/15 07:56:42;;;;;;;11.80;6.28;;;19.10;99.90;;;;;;5081154;28;20041;-72
2021/08/15 07:59:10;;;;;;;11.23;5.80;;;19.30;99.90;;;;;;5067789;28;20472;-72
2021/08/15 08:01:37;;;;;;;10.60;5.75;;;19.30;99.90;;;;;;5080195;28;20059;-71
2021/08/15 08:04:03;;;;;;;12.52;6.07;;;19.20;99.90;;;;;;5065972;28;20048;-72
2021/08/15 08:06:29;;;;;;;9.20;4.82;;;19.20;99.90;;;;;;5067282;28;20124;-72
2021/08/15 08:08:54;;;;;;;9.60;5.85;;;19.30;99.90;;;;;;5066950;28;20488;-72
2021/08/15 08:11:20;;;;;;;11.57;5.47;;;19.40;99.90;;;;;;5064957;28;20051;-72
2021/08/15 08:13:47;;;;;;;9.50;6.40;;;19.40;99.90;;;;;;5086580;28;20037;-72
2021/08/15 08:16:14;;;;;;;9.52;5.35;;;19.50;99.90;;;;;;5072623;28;20104;-72
2021/08/15 08:18:40;;;;;;;10.38;5.85;;;19.50;99.90;;;;;;5065862;28;20100;-72
2021/08/15 08:21:07;;;;;;;10.57;5.78;;;19.60;99.90;;;;;;5065483;28;20049;-72
2021/08/15 08:23:34;;;;;;;9.38;5.40;;;19.60;99.90;;;;;;5065483;28;20037;-72
2021/08/15 08:26:00;;;;;;;8.63;4.97;;;19.70;99.90;;;;;;5081019;28;20040;-72
2021/08/15 08:28:26;;;;;;;9.00;5.20;;;19.70;99.90;;;;;;5066222;28;20040;-71
2021/08/15 08:30:52;;;;;;;12.15;5.65;;;19.80;99.90;;;;;;5065740;28;20040;-72
2021/08/15 08:33:18;;;;;;;9.25;5.25;;;19.80;99.90;;;;;;5065280;28;20496;-72
2021/08/15 08:35:43;;;;;;;9.88;5.13;;;19.90;99.90;;;;;;5066799;28;20108;-71
2021/08/15 08:38:09;;;;;;;10.70;5.47;;;19.90;99.90;;;;;;5066206;28;20041;-72
2021/08/15 08:40:35;;;;;;;8.00;5.35;;;20.00;99.90;;;;;;5077476;28;20272;-73
2021/08/15 08:43:01;;;;;;;9.80;5.78;;;20.00;99.90;;;;;;5066529;28;20068;-72
2021/08/15 08:45:28;;;;;;;9.80;5.38;;;20.10;99.90;;;;;;5065073;28;20056;-72
2021/08/15 08:47:55;;;;;;;11.90;6.28;;;20.10;99.90;;;;;;5065130;28;20053;-72
2021/08/15 08:50:22;;;;;;;12.40;5.55;;;20.10;99.90;;;;;;5064897;28;20068;-72
2021/08/15 08:52:49;;;;;;;13.00;6.00;;;20.20;99.90;;;;;;5072143;28;20048;-72
2021/08/15 08:55:17;;;;;;;10.00;5.90;;;20.30;99.90;;;;;;5065326;28;20048;-72
2021/08/15 08:57:44;;;;;;;9.50;5.40;;;20.30;99.90;;;;;;5064973;28;20047;-72
2021/08/15 09:00:11;;;;;;;11.45;6.45;;;20.30;99.90;;;;;;5071456;28;20073;-73
2021/08/15 09:02:38;;;;;;;12.75;5.40;;;20.30;99.90;;;;;;5065258;28;20108;-73
2021/08/15 09:05:05;;;;;;;11.35;5.72;;;20.30;99.90;;;;;;5064928;28;20040;-73
2021/08/15 09:07:37;;;;;;;12.02;5.72;;;20.30;99.90;;;;;;5064925;28;20063;-73
2021/08/15 09:10:06;;;;;;;9.40;5.93;;;20.30;99.90;;;;;;5064611;28;20056;-73
2021/08/15 09:12:41;;;;;;;9.73;5.90;;;20.40;99.90;;;;;;5064254;28;20033;-73
2021/08/15 09:15:18;;;;;;;10.38;5.15;;;20.40;99.90;;;;;;5065679;28;20223;-73
2021/08/15 09:17:45;;;;;;;11.20;5.55;;;20.50;99.90;;;;;;5064464;28;20068;-73
2021/08/15 09:20:14;;;;;;;10.70;5.30;;;20.60;99.90;;;;;;5065551;28;20061;-73
2021/08/15 09:22:40;;;;;;;11.27;5.10;;;20.70;99.90;;;;;;5083534;28;20047;-73
2021/08/15 09:25:12;;;;;;;10.13;5.15;;;20.70;99.90;;;;;;5072487;28;20040;-72
2021/08/15 09:27:45;;;;;;;10.27;5.40;;;20.90;99.90;;;;;;5063867;28;20037;-72
2021/08/15 09:30:31;;;;;;;9.20;5.25;;;21.10;99.90;;;;;;5064196;28;20049;-73
2021/08/15 09:33:00;;;;;;;9.13;4.88;;;21.20;99.90;;;;;;5063879;28;20052;-73
2021/08/15 09:35:35;;;;;;;7.67;4.23;;;21.30;99.90;;;;;;5064144;28;20049;-72
2021/08/15 09:38:06;;;;;;;10.32;5.15;;;21.40;99.90;;;;;;5064629;28;20099;-72
2021/08/15 09:40:47;;;;;;;11.40;5.85;;;21.50;99.90;;;;;;5064570;28;20063;-72
2021/08/15 09:43:27;;;;;;;8.55;4.90;;;21.40;99.90;;;;;;5063731;28;20060;-72
2021/08/15 09:46:00;;;;;;;9.18;4.70;;;21.40;99.90;;;;;;5064184;28;20094;-72
2021/08/15 09:48:36;;;;;;;9.07;4.93;;;21.40;99.90;;;;;;5065025;28;20049;-72
2021/08/15 09:51:15;;;;;;;8.40;5.00;;;21.50;99.90;;;;;;5068884;28;20053;-72
2021/08/15 09:53:53;;;;;;;12.73;5.00;;;21.60;99.90;;;;;;5078158;28;20045;-72
2021/08/15 09:56:39;;;;;;;9.43;4.78;;;21.80;99.90;;;;;;5076287;28;20072;-72
2021/08/15 09:59:18;;;;;;;11.50;5.30;;;21.80;99.90;;;;;;5070797;28;20323;-73
2021/08/15 10:01:55;;;;;;;10.18;4.50;;;21.90;99.90;;;;;;5067407;28;20055;-72
2021/08/15 10:04:24;;;;;;;14.43;4.90;;;21.90;99.90;;;;;;5075458;28;20099;-72
2021/08/15 10:06:51;;;;;;;;;;;22.00;99.90;;;;;;5067199;28;20045;-72
2021/08/15 10:09:19;;;;;;;8.93;4.65;;;22.00;99.90;;;;;;5065086;28;19920;-72
2021/08/15 10:11:45;;;;;;;8.13;4.43;;;22.10;99.90;;;;;;5078343;28;20044;-73
2021/08/15 10:14:12;;;;;;;11.30;5.32;;;22.20;99.90;;;;;;5064077;28;20048;-73
2021/08/15 10:16:59;;;;;;;10.40;5.30;;;22.30;99.90;;;;;;5063424;28;20045;-73
2021/08/15 10:19:39;;;;;;;9.27;5.20;;;22.20;99.90;;;;;;5063552;28;20040;-72
2021/08/15 10:22:05;;;;;;;9.68;5.57;;;22.20;99.90;;;;;;5063550;28;20044;-72
2021/08/15 10:24:40;;;;;;;8.40;4.45;;;22.20;99.90;;;;;;5065030;28;20435;-72
2021/08/15 10:27:06;;;;;;;11.00;5.25;;;22.30;99.90;;;;;;5067543;28;20120;-73
2021/08/15 10:29:44;;;;;;;10.48;4.70;;;22.30;99.90;;;;;;5067821;28;20076;-73
2021/08/15 10:32:15;;;;;;;9.40;5.22;;;22.30;99.90;;;;;;5067684;28;20045;-73
2021/08/15 10:34:50;;;;;;;9.18;5.32;;;22.40;99.90;;;;;;5067566;28;20041;-73
2021/08/15 10:37:25;;;;;;;8.65;5.15;;;22.50;99.90;;;;;;5067644;28;20057;-72
2021/08/15 10:39:54;;;;;;;9.95;5.22;;;22.60;99.90;;;;;;5073497;28;20045;-73
2021/08/15 10:42:39;;;;;;;9.98;4.95;;;22.60;99.90;;;;;;5073219;28;20082;-73
2021/08/15 10:45:17;;;;;;;10.40;5.47;;;22.70;99.90;;;;;;5067698;28;20045;-73
2021/08/15 10:48:09;;;;;;;11.20;5.20;;;22.70;99.90;;;;;;5067474;28;20052;-73
2021/08/15 10:50:55;;;;;;;9.93;4.70;;;22.90;99.90;;;;;;5082977;28;20052;-72
2021/08/15 10:53:29;;;;;;;9.73;4.63;;;23.00;99.90;;;;;;5081538;28;20047;-73
2021/08/15 10:56:02;;;;;;;9.55;5.57;;;23.00;99.90;;;;;;5071677;28;20048;-73
2021/08/15 10:58:47;;;;;;;9.82;5.13;;;23.00;99.90;;;;;;5077986;28;20044;-73
2021/08/15 11:01:18;;;;;;;9.82;5.80;;;23.20;99.90;;;;;;5073763;28;20047;-72
2021/08/15 11:03:47;;;;;;;9.00;5.07;;;23.20;99.90;;;;;;5073809;28;20052;-73
2021/08/15 11:06:31;;;;;;;12.93;6.60;;;23.20;99.90;;;;;;5067819;28;20048;-73
2021/08/15 11:09:08;;;;;;;8.98;5.05;;;23.20;99.90;;;;;;5069169;28;20056;-73
2021/08/15 11:11:36;;;;;;;9.50;5.47;;;23.20;99.90;;;;;;5076541;28;20104;-73
2021/08/15 11:14:17;;;;;;;10.85;5.18;;;23.10;99.90;;;;;;5066851;28;20041;-73
2021/08/15 11:16:50;;;;;;;11.48;4.88;;;23.00;99.90;;;;;;5079793;28;20044;-73
2021/08/15 11:19:16;;;;;;;10.68;5.28;;;23.10;99.90;;;;;;5074238;28;20503;-73
2021/08/15 11:22:05;;;;;;;10.23;5.00;;;23.20;99.90;;;;;;5086957;28;20063;-73
2021/08/15 11:24:33;;;;;;;7.63;5.18;;;23.40;99.90;;;;;;5066691;28;20041;-72
2021/08/15 11:26:59;;;;;;;10.45;4.93;;;23.40;99.90;;;;;;5081551;28;20044;-73
2021/08/15 11:29:25;;;;;;;10.43;4.68;;;23.50;99.90;;;;;;5066885;28;20040;-73
2021/08/15 11:31:54;;;;;;;7.22;4.50;;;23.60;99.90;;;;;;5066614;28;20048;-73
2021/08/15 11:34:21;;;;;;;8.88;4.90;;;23.60;99.90;;;;;;5066569;28;20045;-72
2021/08/15 11:37:01;;;;;;;9.85;5.00;;;23.70;99.90;;;;;;5066372;28;20049;-72
2021/08/15 11:39:30;;;;;;;;;;;23.60;99.90;;;;;;5066509;28;20075;-73
2021/08/15 11:41:56;;;;;;;6.97;4.93;;;23.70;99.90;;;;;;5070931;28;21914;-73
2021/08/15 11:44:22;;;;;;;9.35;5.15;;;23.80;99.90;;;;;;5075629;28;20055;-72
2021/08/15 11:46:47;;;;;;;8.77;4.70;;;24.00;99.90;;;;;;5066238;28;20074;-72
2021/08/15 11:49:33;;;;;;;8.23;4.32;;;24.10;99.90;;;;;;5066362;28;20045;-72
2021/08/15 11:52:17;;;;;;;6.35;4.10;;;24.20;99.90;;;;;;5075134;28;20143;-72
2021/08/15 11:54:43;;;;;;;8.15;4.93;;;24.30;99.90;;;;;;5071298;28;20049;-72
2021/08/15 11:57:11;;;;;;;8.02;4.47;;;24.30;99.90;;;;;;5067679;28;20045;-72
2021/08/15 11:59:47;;;;;;;9.18;3.78;;;24.10;99.90;;;;;;5067342;28;20045;-72
2021/08/15 12:02:21;;;;;;;8.07;4.50;;;24.20;99.90;;;;;;5066674;28;20420;-72
2021/08/15 12:04:50;;;;;;;6.82;3.90;;;24.20;99.90;;;;;;5070278;28;20052;-72
2021/08/15 12:07:25;;;;;;;6.35;3.63;;;24.40;99.90;;;;;;5085201;28;20508;-72
2021/08/15 12:10:22;;;;;;;8.43;4.47;;;24.50;99.90;;;;;;5066781;28;20061;-72
2021/08/15 12:13:08;;;;;;;9.70;4.63;;;24.60;99.90;;;;;;5065797;28;20056;-72
2021/08/15 12:15:34;;;;;;;8.77;4.50;;;24.50;99.90;;;;;;5075847;28;20081;-72
2021/08/15 12:17:59;;;;;;;8.80;5.00;;;24.60;99.90;;;;;;5082543;28;20045;-73
2021/08/15 12:20:25;;;;;;;7.95;4.15;;;24.60;99.90;;;;;;5065902;28;20056;-73
2021/08/15 12:22:51;;;;;;;8.70;4.43;;;24.40;99.90;;;;;;5066514;28;20091;-73
2021/08/15 12:25:21;;;;;;;9.85;4.38;;;24.20;99.90;;;;;;5065944;28;20049;-73
2021/08/15 12:27:47;;;;;;;8.32;3.88;;;24.20;99.90;;;;;;5065818;28;20041;-73
2021/08/15 12:30:26;;;;;;;9.55;3.85;;;24.50;99.90;;;;;;5065533;28;20048;-72
2021/08/15 12:32:52;;;;;;;8.23;4.30;;;24.50;99.90;;;;;;5065535;28;20041;-72
2021/08/15 12:35:26;;;;;;;7.15;3.88;;;24.50;99.90;;;;;;5065519;28;20108;-71
2021/08/15 12:37:53;;;;;;;9.40;5.22;;;24.50;99.90;;;;;;5066167;28;20045;-71
2021/08/15 12:40:27;;;;;;;7.45;4.22;;;24.60;99.90;;;;;;5064892;28;20049;-72
2021/08/15 12:43:00;;;;;;;9.80;4.57;;;24.70;99.90;;;;;;5071200;28;20057;-73
2021/08/15 12:45:37;;;;;;;7.57;4.07;;;24.80;99.90;;;;;;5072556;28;20064;-73
2021/08/15 12:48:05;;;;;;;7.90;4.00;;;24.80;99.90;;;;;;5065127;28;20150;-73
2021/08/15 12:50:32;;;;;;;5.60;4.07;;;25.00;99.90;;;;;;5065514;28;20064;-73